Time;durP1;ratioP1;P1;durP2;ratioP2;P2;SDS_P1;SDS_P2;PMS_P1;PMS_P2;Temp;Humidity;BMP_temperature;BMP_pressure;BME280_temperature;BME280_humidity;BME280_pressure;Samples;Min_cycle;Max_cycle;Signal;HPM_P1;HPM_P2
2023/12/27 00:04:20;;;;;;;1999.90;999.90;;;;;;;4.55;100.00;102056.94;10459711;28;20083;-65
2023/12/27 00:09:23;;;;;;;1999.90;999.90;;;;;;;4.65;100.00;102047.31;10459224;28;20064;-65
2023/12/27 00:14:25;;;;;;;1999.90;999.90;;;;;;;4.52;100.00;102040.56;10457688;28;20076;-65
2023/12/27 00:19:28;;;;;;;1999.90;999.90;;;;;;;4.36;100.00;102037.31;10459091;28;20059;-65
2023/12/27 00:24:30;;;;;;;1999.90;999.90;;;;;;;4.23;100.00;102040.00;10458690;28;20045;-65
2023/12/27 00:29:33;;;;;;;1999.90;999.90;;;;;;;3.84;100.00;102041.31;10458776;28;20099;-65
2023/12/27 00:34:35;;;;;;;1999.90;999.90;;;;;;;3.86;100.00;102037.81;10458365;28;20482;-65
2023/12/27 00:39:41;;;;;;;1999.90;999.90;;;;;;;3.89;100.00;102042.13;10458462;28;20057;-65
2023/12/27 00:44:46;;;;;;;1999.90;999.90;;;;;;;3.80;100.00;102040.47;10458067;28;20051;-65
2023/12/27 00:49:48;;;;;;;1999.90;999.90;;;;;;;3.37;100.00;102037.38;10457923;28;20057;-64
2023/12/27 00:54:53;;;;;;;1999.90;999.90;;;;;;;3.60;100.00;102026.81;10457728;28;20048;-65
2023/12/27 00:59:55;;;;;;;1999.90;999.90;;;;;;;3.59;100.00;102033.75;10456779;28;20052;-65
2023/12/27 01:04:57;;;;;;;1999.90;999.90;;;;;;;3.35;100.00;102046.00;10457383;28;20137;-65
2023/12/27 01:10:00;;;;;;;1999.90;999.90;;;;;;;3.35;100.00;102035.66;10457224;28;20118;-65
2023/12/27 01:15:02;;;;;;;1999.90;999.90;;;;;;;3.42;100.00;102035.63;10457050;28;20055;-65
2023/12/27 01:20:05;;;;;;;1999.90;999.90;;;;;;;3.20;100.00;102040.09;10456732;28;20443;-65
2023/12/27 01:25:09;;;;;;;1999.90;999.90;;;;;;;3.37;100.00;102037.38;10468476;22;20053;-70
2023/12/27 01:30:12;;;;;;;1999.90;999.90;;;;;;;3.31;100.00;102033.09;10457285;28;20048;-70
2023/12/27 01:35:15;;;;;;;1999.90;999.90;;;;;;;3.39;100.00;102028.72;10456475;28;20053;-70
2023/12/27 01:40:17;;;;;;;1999.90;999.90;;;;;;;3.23;100.00;102033.16;10455307;28;20494;-70
2023/12/27 01:45:20;;;;;;;1999.90;999.90;;;;;;;3.52;100.00;102034.66;10456253;28;20041;-70
2023/12/27 01:50:22;;;;;;;1999.90;999.90;;;;;;;3.59;100.00;102051.03;10456516;28;20084;-70
2023/12/27 01:55:25;;;;;;;1999.90;999.90;;;;;;;3.57;100.00;102039.81;10455426;28;20060;-70
2023/12/27 02:00:27;;;;;;;1999.90;999.90;;;;;;;3.74;100.00;102034.50;10455170;28;20124;-70
2023/12/27 02:05:30;;;;;;;1999.90;999.90;;;;;;;3.44;100.00;102029.53;10454809;28;20049;-70
2023/12/27 02:10:33;;;;;;;1999.90;999.90;;;;;;;3.64;100.00;102029.38;10454743;28;20102;-70
2023/12/27 02:15:36;;;;;;;1999.90;999.90;;;;;;;3.53;100.00;102024.31;10438241;28;20120;-70
2023/12/27 02:20:40;;;;;;;1999.90;999.90;;;;;;;3.73;100.00;102023.25;10455556;28;20089;-70
2023/12/27 02:25:43;;;;;;;1999.90;999.90;;;;;;;3.24;100.00;102010.72;10455436;28;20048;-70
2023/12/27 02:30:45;;;;;;;1999.90;999.90;;;;;;;3.24;100.00;102010.72;10437747;28;20056;-70
2023/12/27 02:35:48;;;;;;;1999.90;999.90;;;;;;;3.58;100.00;102018.22;10455380;28;20079;-70
2023/12/27 02:40:50;;;;;;;1999.90;999.90;;;;;;;3.26;100.00;102003.78;10462404;28;20056;-70
2023/12/27 02:45:53;;;;;;;1999.90;999.90;;;;;;;3.50;100.00;101997.56;10461593;28;20053;-70
2023/12/27 02:50:55;;;;;;;1999.90;999.90;;;;;;;3.29;100.00;101994.28;10462561;28;20131;-71
2023/12/27 02:55:58;;;;;;;1999.90;999.90;;;;;;;3.07;100.00;101996.16;10461110;28;20045;-70
2023/12/27 03:01:00;;;;;;;1999.90;999.90;;;;;;;3.41;100.00;101995.91;10462274;28;20124;-70
2023/12/27 03:06:03;;;;;;;1999.90;999.90;;;;;;;3.72;100.00;101986.13;10461904;28;20045;-70
2023/12/27 03:11:08;;;;;;;1999.90;999.90;;;;;;;3.91;100.00;101981.63;10461677;28;20550;-70
2023/12/27 03:16:11;;;;;;;1999.90;999.90;;;;;;;4.13;100.00;101970.16;10461679;28;20479;-70
2023/12/27 03:21:13;;;;;;;1999.90;999.90;;;;;;;4.17;100.00;101959.75;10461476;28;20051;-70
2023/12/27 03:26:15;;;;;;;1999.90;999.90;;;;;;;4.30;100.00;101963.03;10461358;28;20060;-69
2023/12/27 03:31:18;;;;;;;1999.90;999.90;;;;;;;4.31;100.00;101959.56;10461111;28;20133;-70
2023/12/27 03:36:20;;;;;;;1999.90;999.90;;;;;;;4.38;100.00;101949.97;10460804;28;20045;-69
2023/12/27 03:41:24;;;;;;;1999.90;999.90;;;;;;;4.45;100.00;101949.00;10460877;28;20056;-70
2023/12/27 03:46:26;;;;;;;1999.90;999.90;;;;;;;4.57;100.00;101947.97;10443133;28;20041;-69
2023/12/27 03:51:29;;;;;;;1999.90;999.90;;;;;;;4.50;100.00;101928.22;10458358;28;20580;-69
2023/12/27 03:56:32;;;;;;;1999.90;999.90;;;;;;;4.45;100.00;101949.00;10460027;28;20402;-69
2023/12/27 04:01:34;;;;;;;1999.90;999.90;;;;;;;4.47;100.00;101949.84;10460122;28;20053;-69
2023/12/27 04:06:36;;;;;;;1999.90;999.90;;;;;;;4.43;100.00;101937.81;10458546;28;20048;-69
2023/12/27 04:11:45;;;;;;;1999.90;999.90;;;;;;;4.57;100.00;101933.31;10459495;28;20049;-69
2023/12/27 04:16:47;;;;;;;1999.90;999.90;;;;;;;4.53;100.00;101917.78;10458658;28;20080;-69
2023/12/27 04:21:50;;;;;;;1999.90;999.90;;;;;;;4.68;100.00;101916.72;10457742;28;20045;-69
2023/12/27 04:26:53;;;;;;;1999.90;999.90;;;;;;;4.44;100.00;101900.63;10459178;28;20527;-69
2023/12/27 04:31:55;;;;;;;1999.90;999.90;;;;;;;4.24;100.00;101888.78;10457352;28;20488;-69
2023/12/27 04:36:57;;;;;;;1999.90;999.90;;;;;;;3.99;100.00;101885.66;10458648;28;20067;-69
2023/12/27 04:42:00;;;;;;;1999.90;999.90;;;;;;;3.98;100.00;101877.91;10458844;28;20133;-70
2023/12/27 04:47:02;;;;;;;1999.90;999.90;;;;;;;4.17;100.00;101868.16;10457850;28;20041;-69
2023/12/27 04:52:05;;;;;;;1999.90;999.90;;;;;;;4.32;100.00;101870.56;10457996;28;20123;-69
2023/12/27 04:57:07;;;;;;;1999.90;999.90;;;;;;;4.27;100.00;101859.38;10457626;28;20051;-70
2023/12/27 05:02:10;;;;;;;1999.90;999.90;;;;;;;4.31;100.00;101853.25;10456742;28;20053;-69
2023/12/27 05:07:12;;;;;;;1999.90;999.90;;;;;;;4.49;100.00;101857.34;10457819;28;20085;-69
2023/12/27 05:12:14;;;;;;;1999.90;999.90;;;;;;;4.62;100.00;101848.50;10456032;28;20535;-69
2023/12/27 05:17:17;;;;;;;1999.90;999.90;;;;;;;4.65;100.00;101845.81;10456197;28;20534;-70
2023/12/27 05:22:20;;;;;;;1999.90;999.90;;;;;;;4.71;100.00;101834.50;10457210;28;20110;-69
2023/12/27 05:27:23;;;;;;;1999.90;999.90;;;;;;;4.68;100.00;101833.72;10456710;28;20067;-69
2023/12/27 05:32:25;;;;;;;1999.90;999.90;;;;;;;4.76;100.00;101824.06;10456758;28;20546;-69
2023/12/27 05:37:28;;;;;;;1999.90;999.90;;;;;;;4.76;100.00;101829.25;10456666;28;20095;-69
2023/12/27 05:42:30;;;;;;;1999.90;999.90;;;;;;;4.77;100.00;101818.81;10456521;28;20123;-69
2023/12/27 05:47:33;;;;;;;1999.90;999.90;;;;;;;4.74;100.00;101818.00;10456255;28;20051;-69
2023/12/27 05:52:36;;;;;;;1999.90;999.90;;;;;;;4.66;100.00;101810.38;10456121;28;20059;-70
2023/12/27 05:57:38;;;;;;;1999.90;999.90;;;;;;;4.78;100.00;101807.56;10456037;28;20059;-70
2023/12/27 06:02:41;;;;;;;1999.90;999.90;;;;;;;4.89;100.00;101804.78;10456315;28;20098;-69
2023/12/27 06:07:43;;;;;;;1999.90;999.90;;;;;;;4.93;100.00;101790.88;10455018;28;20128;-69
2023/12/27 06:12:47;;;;;;;1999.90;999.90;;;;;;;5.05;100.00;101786.34;10457061;28;20582;-69
2023/12/27 06:17:49;;;;;;;1999.90;999.90;;;;;;;4.86;100.00;101781.50;10464079;28;20064;-70
2023/12/27 06:22:52;;;;;;;1999.90;999.90;;;;;;;5.22;100.00;101777.34;10463416;28;20087;-69
2023/12/27 06:27:54;;;;;;;1999.90;999.90;;;;;;;5.18;100.00;101765.31;10462308;28;20130;-70
2023/12/27 06:32:57;;;;;;;1999.90;999.90;;;;;;;5.20;100.00;101758.34;10463272;28;20049;-70
2023/12/27 06:38:00;;;;;;;1999.90;999.90;;;;;;;5.13;100.00;101745.53;10463396;28;20128;-69
2023/12/27 06:43:02;;;;;;;1999.90;999.90;;;;;;;5.23;100.00;101739.28;10463460;28;20056;-69
2023/12/27 06:48:05;;;;;;;1999.90;999.90;;;;;;;5.32;100.00;101736.47;10462617;28;20486;-69
2023/12/27 06:53:07;;;;;;;1999.90;999.90;;;;;;;5.29;100.00;101723.56;10462751;28;20079;-69
2023/12/27 06:58:10;;;;;;;1999.90;999.90;;;;;;;5.20;100.00;101711.63;10461100;28;20044;-69
2023/12/27 07:03:13;;;;;;;1999.90;999.90;;;;;;;5.38;100.00;101697.41;10461300;28;20077;-69
2023/12/27 07:08:19;;;;;;;1999.90;999.90;;;;;;;5.22;100.00;101703.81;10460842;28;20045;-69
2023/12/27 07:13:21;;;;;;;1999.90;999.90;;;;;;;5.39;100.00;101693.91;10461999;28;20045;-69
2023/12/27 07:18:23;;;;;;;1999.90;999.90;;;;;;;5.53;100.00;101692.75;10461694;28;20103;-69
2023/12/27 07:23:26;;;;;;;1999.90;999.90;;;;;;;5.50;100.00;101692.84;10460015;28;20061;-69
2023/12/27 07:28:29;;;;;;;1999.90;999.90;;;;;;;5.30;100.00;101694.09;10461732;28;20048;-69
2023/12/27 07:33:31;;;;;;;1999.90;999.90;;;;;;;5.36;100.00;101696.59;10459726;28;20506;-69
2023/12/27 07:38:34;;;;;;;1999.90;999.90;;;;;;;5.43;100.00;101686.03;10461067;28;20087;-69
2023/12/27 07:43:36;;;;;;;1999.90;999.90;;;;;;;5.28;100.00;101682.03;10443254;28;20404;-69
2023/12/27 07:48:39;;;;;;;1999.90;999.90;;;;;;;5.39;100.00;101678.31;10460367;28;20059;-69
2023/12/27 07:53:41;;;;;;;1999.90;999.90;;;;;;;5.43;100.00;101670.47;10460129;28;20052;-69
2023/12/27 07:58:45;;;;;;;1999.90;999.90;;;;;;;5.72;100.00;101677.63;10458863;28;20103;-69
2023/12/27 08:03:48;;;;;;;1999.90;999.90;;;;;;;5.54;100.00;101676.28;10441952;28;20044;-69
2023/12/27 08:08:50;;;;;;;1999.90;999.90;;;;;;;5.54;100.00;101679.72;10458301;28;20426;-69
2023/12/27 08:13:52;;;;;;;1999.90;999.90;;;;;;;5.78;100.00;101677.47;10459695;28;20055;-69
2023/12/27 08:18:55;;;;;;;1999.90;999.90;;;;;;;5.73;100.00;101672.41;10457970;28;20434;-69
2023/12/27 08:23:57;;;;;;;1999.90;999.90;;;;;;;5.86;100.00;101657.34;10457681;28;20049;-69
2023/12/27 08:29:00;;;;;;;1999.90;999.90;;;;;;;5.81;100.00;101658.34;10458793;28;20044;-69
2023/12/27 08:34:03;;;;;;;1999.90;999.90;;;;;;;5.84;100.00;101661.72;10440965;28;20049;-69
2023/12/27 08:39:05;;;;;;;1999.90;999.90;;;;;;;6.00;100.00;101661.38;10458414;28;20048;-69
2023/12/27 08:44:08;;;;;;;1999.90;999.90;;;;;;;6.05;100.00;101654.34;10458677;28;20053;-69
2023/12/27 08:49:10;;;;;;;1999.90;999.90;;;;;;;6.05;100.00;101649.13;10456778;28;20504;-69
2023/12/27 08:54:13;;;;;;;1999.90;999.90;;;;;;;6.40;100.00;101640.41;10458069;28;20083;-69
2023/12/27 08:59:15;;;;;;;1999.90;999.90;;;;;;;6.32;100.00;101618.97;10457012;28;20053;-69
2023/12/27 09:04:19;;;;;;;1999.90;999.90;;;;;;;6.33;100.00;101612.88;10457553;28;20077;-69
2023/12/27 09:09:26;;;;;;;1999.90;999.90;;;;;;;6.30;100.00;101606.03;10456472;28;20065;-69
2023/12/27 09:14:28;;;;;;;1999.90;999.90;;;;;;;6.53;100.00;101591.53;10457324;28;20041;-69
2023/12/27 09:19:31;;;;;;;1999.90;999.90;;;;;;;6.58;100.00;101583.59;10457038;28;20077;-69
2023/12/27 09:24:34;;;;;;;1999.90;999.90;;;;;;;6.58;100.00;101594.00;10439258;28;20102;-70
2023/12/27 09:29:36;;;;;;;1999.90;999.90;;;;;;;6.73;100.00;101590.13;10455513;28;20511;-69
2023/12/27 09:34:38;;;;;;;1999.90;999.90;;;;;;;6.85;100.00;101581.94;10455372;28;20128;-69
2023/12/27 09:39:41;;;;;;;1999.90;999.90;;;;;;;7.04;100.00;101587.47;10455247;28;20519;-69
2023/12/27 09:44:44;;;;;;;1999.90;999.90;;;;;;;6.99;100.00;101569.41;10456167;28;20049;-69
2023/12/27 09:49:46;;;;;;;1999.90;999.90;;;;;;;7.05;100.00;101563.97;10464911;28;20053;-69
2023/12/27 09:54:49;;;;;;;1999.90;999.90;;;;;;;7.29;100.00;101547.66;10468685;28;20049;-69
2023/12/27 09:59:53;;;;;;;1999.90;999.90;;;;;;;7.44;100.00;101552.38;10469938;28;20442;-69
2023/12/27 10:05:14;;;;;;;1999.90;999.90;;;;;;;7.38;100.00;101535.19;10451900;28;20049;-70
2023/12/27 10:10:18;;;;;;;1999.90;999.90;;;;;;;7.45;100.00;101533.22;10468368;28;20512;-69
2023/12/27 10:15:29;;;;;;;1999.90;999.90;;;;;;;7.56;100.00;101538.09;10468501;28;20554;-70
2023/12/27 10:20:32;;;;;;;1999.90;999.90;;;;;;;7.47;100.00;101526.22;10469406;28;20067;-69
2023/12/27 10:25:36;;;;;;;1999.90;999.90;;;;;;;7.60;100.00;101513.63;10468074;28;20061;-70
2023/12/27 10:30:38;;;;;;;1999.90;999.90;;;;;;;7.47;100.00;101481.91;10469319;28;20559;-70
2023/12/27 10:35:40;;;;;;;1999.90;999.90;;;;;;;7.44;100.00;101469.84;10469093;28;20045;-70
2023/12/27 10:40:44;;;;;;;1999.90;999.90;;;;;;;7.70;100.00;101475.06;10468124;28;20516;-69
2023/12/27 10:45:46;;;;;;;1999.90;999.90;;;;;;;7.89;100.00;101473.53;10469205;28;20049;-69
2023/12/27 10:50:48;;;;;;;1999.90;999.90;;;;;;;7.70;100.00;101457.69;10467963;28;20128;-69
2023/12/27 10:55:51;;;;;;;1999.90;999.90;;;;;;;7.81;100.00;101470.34;10467668;28;20132;-69
2023/12/27 11:00:54;;;;;;;1999.90;999.90;;;;;;;8.03;100.00;101456.53;10462901;28;20060;-69
2023/12/27 11:05:59;;;;;;;1999.90;999.90;;;;;;;8.03;100.00;101433.91;10444182;28;20052;-69
2023/12/27 11:11:04;;;;;;;1999.90;999.90;;;;;;;7.96;100.00;101424.63;10462167;28;20053;-69
2023/12/27 11:16:07;;;;;;;1999.90;999.90;;;;;;;8.03;100.00;101426.09;10460637;28;20131;-69
2023/12/27 11:21:10;;;;;;;1999.90;999.90;;;;;;;8.06;100.00;101402.50;10460294;28;20052;-69
2023/12/27 11:26:14;;;;;;;1999.90;999.90;;;;;;;8.23;100.00;101414.06;10460179;28;20053;-69
2023/12/27 11:31:17;;;;;;;1999.90;999.90;;;;;;;8.26;100.00;101400.91;10460941;28;20076;-69
2023/12/27 11:36:20;;;;;;;1999.90;999.90;;;;;;;8.38;100.00;101395.22;10459930;28;20072;-69
2023/12/27 11:41:23;;;;;;;1999.90;999.90;;;;;;;8.38;100.00;101377.78;10460772;28;20123;-69
2023/12/27 11:46:26;;;;;;;1999.90;999.90;;;;;;;8.54;100.00;101374.66;10459157;28;20460;-69
2023/12/27 11:51:32;;;;;;;1999.90;999.90;;;;;;;8.59;100.00;101374.44;10459261;28;20048;-69
2023/12/27 11:56:36;;;;;;;1999.90;999.90;;;;;;;8.62;100.00;101348.22;10458946;28;20102;-69
2023/12/27 12:01:42;;;;;;;1999.90;999.90;;;;;;;8.59;100.00;101338.75;10460206;28;20055;-69
2023/12/27 12:06:53;;;;;;;1999.90;999.90;;;;;;;8.55;100.00;101319.75;10459486;28;20484;-69
2023/12/27 12:11:55;;;;;;;1999.90;999.90;;;;;;;8.68;100.00;101298.38;10459395;28;20048;-69
2023/12/27 12:16:58;;;;;;;1999.90;999.90;;;;;;;8.61;100.00;101316.06;10459290;28;20072;-69
2023/12/27 12:22:01;;;;;;;1999.90;999.90;;;;;;;8.63;100.00;101284.66;10441426;28;20049;-69
2023/12/27 12:27:04;;;;;;;1999.90;999.90;;;;;;;8.76;100.00;101288.47;10457714;28;20057;-69
2023/12/27 12:32:07;;;;;;;1999.90;999.90;;;;;;;8.70;100.00;101260.84;10458522;28;20053;-69
2023/12/27 12:37:10;;;;;;;1999.90;999.90;;;;;;;8.73;100.00;101249.44;10457944;28;20088;-69
2023/12/27 12:42:12;;;;;;;1999.90;999.90;;;;;;;8.69;100.00;101245.22;10457312;28;20095;-69
2023/12/27 12:47:15;;;;;;;1999.90;999.90;;;;;;;8.68;100.00;101251.38;10456988;28;20044;-69
2023/12/27 12:52:17;;;;;;;1999.90;999.90;;;;;;;8.92;100.00;101236.44;10456530;28;20053;-69
2023/12/27 12:57:20;;;;;;;1999.90;999.90;;;;;;;9.10;100.00;101225.16;10457892;28;20049;-69
2023/12/27 13:02:23;;;;;;;1999.90;999.90;;;;;;;8.96;100.00;101206.66;10456460;28;20454;-69
2023/12/27 13:07:29;;;;;;;1999.90;999.90;;;;;;;8.91;100.00;101183.34;10456418;28;20365;-70
2023/12/27 13:12:33;;;;;;;1999.90;999.90;;;;;;;8.97;100.00;101191.84;10457311;28;20087;-70
2023/12/27 13:17:38;;;;;;;1999.90;999.90;;;;;;;8.93;100.00;101168.47;10455920;28;20045;-70
2023/12/27 13:22:40;;;;;;;1999.90;999.90;;;;;;;8.92;100.00;101165.91;10455754;28;20403;-69
2023/12/27 13:27:43;;;;;;;1999.90;999.90;;;;;;;9.21;100.00;101154.16;10455489;28;20059;-69
2023/12/27 13:33:01;;;;;;;1999.90;999.90;;;;;;;9.10;100.00;101156.41;10455962;28;20484;-69
2023/12/27 13:38:04;;;;;;;1999.90;999.90;;;;;;;9.21;100.00;101151.56;10460211;22;20500;-62
2023/12/27 13:43:06;;;;;;;1999.90;999.90;;;;;;;9.21;100.00;101119.34;10432272;28;20051;-66
2023/12/27 13:48:08;;;;;;;1999.90;999.90;;;;;;;9.27;100.00;101124.28;10435718;28;20544;-64
2023/12/27 13:53:11;;;;;;;1999.90;999.90;;;;;;;9.12;100.00;101120.63;10447460;28;20060;-62
2023/12/27 13:58:14;;;;;;;1999.90;999.90;;;;;;;9.06;100.00;101113.06;10439340;28;20512;-63
2023/12/27 14:03:16;;;;;;;1999.90;999.90;;;;;;;9.15;100.00;101098.75;10450222;28;20049;-63
2023/12/27 14:08:20;;;;;;;1999.90;999.90;;;;;;;9.10;100.00;101091.13;10443250;28;20045;-62
2023/12/27 14:13:24;;;;;;;1999.90;999.90;;;;;;;9.14;100.00;101079.59;10430773;28;20464;-63
2023/12/27 14:18:27;;;;;;;1999.90;999.90;;;;;;;9.00;100.00;101058.50;10449158;28;20037;-63
2023/12/27 14:23:29;;;;;;;1999.90;999.90;;;;;;;9.02;100.00;101056.66;10440396;28;20048;-63
2023/12/27 14:28:32;;;;;;;1999.90;999.90;;;;;;;8.92;100.00;101058.84;10433162;28;20787;-63
2023/12/27 14:33:36;;;;;;;1999.90;999.90;;;;;;;8.94;100.00;101064.84;10432121;28;20057;-63
2023/12/27 14:38:41;;;;;;;1999.90;999.90;;;;;;;9.00;100.00;101037.63;10433491;28;20057;-64
2023/12/27 14:43:44;;;;;;;1999.90;999.90;;;;;;;8.99;100.00;101055.03;10441610;28;20080;-63
2023/12/27 14:48:46;;;;;;;1999.90;999.90;;;;;;;8.84;100.00;101042.69;10435913;28;20522;-63
2023/12/27 14:53:49;;;;;;;1999.90;999.90;;;;;;;8.95;100.00;101037.00;10429030;28;20076;-63
2023/12/27 14:58:51;;;;;;;1999.90;999.90;;;;;;;8.95;100.00;101042.22;10428046;28;20041;-64
2023/12/27 15:03:54;;;;;;;1999.90;999.90;;;;;;;8.92;100.00;101036.19;10456041;28;20483;-63
2023/12/27 15:08:57;;;;;;;1999.90;999.90;;;;;;;8.85;100.00;101016.50;10440240;28;20045;-63
2023/12/27 15:13:59;;;;;;;1999.90;999.90;;;;;;;8.82;100.00;101019.25;10461098;28;20049;-63
2023/12/27 15:19:03;;;;;;;1999.90;999.90;;;;;;;9.00;100.00;100990.59;10459386;28;20071;-64
2023/12/27 15:24:06;;;;;;;1999.90;999.90;;;;;;;8.68;100.00;100985.13;10459100;28;20050;-64
2023/12/27 15:29:08;;;;;;;1999.90;999.90;;;;;;;8.67;100.00;100978.22;10458926;28;20052;-63
2023/12/27 15:34:12;;;;;;;1999.90;999.90;;;;;;;8.70;100.00;100972.84;10461462;28;20063;-64
2023/12/27 15:39:15;;;;;;;1999.90;999.90;;;;;;;8.51;100.00;100965.88;10461162;28;20061;-64
2023/12/27 15:44:22;;;;;;;1999.90;999.90;;;;;;;8.74;100.00;100948.28;10460435;28;20063;-64
2023/12/27 15:49:25;;;;;;;1999.90;999.90;;;;;;;8.51;100.00;100945.00;10460688;28;20159;-64
2023/12/27 15:54:27;;;;;;;1999.90;999.90;;;;;;;8.65;100.00;100931.28;10460645;28;20049;-64
2023/12/27 15:59:30;;;;;;;1999.90;999.90;;;;;;;8.54;100.00;100905.72;10460444;28;20048;-64
2023/12/27 16:04:32;;;;;;;1999.90;999.90;;;;;;;8.46;100.00;100904.38;10459983;28;20045;-67
2023/12/27 16:09:35;;;;;;;1999.90;999.90;;;;;;;8.52;100.00;100904.09;10459557;28;20496;-64
2023/12/27 16:14:40;;;;;;;1999.90;999.90;;;;;;;8.53;100.00;100890.97;10458469;28;20055;-64
2023/12/27 16:19:44;;;;;;;1999.90;999.90;;;;;;;8.50;100.00;100878.06;10459317;28;20053;-64
2023/12/27 16:24:49;;;;;;;1999.90;999.90;;;;;;;8.41;100.00;100855.00;10459238;28;20059;-64
2023/12/27 16:29:52;;;;;;;1999.90;999.90;;;;;;;8.42;100.00;100842.78;10458955;28;20049;-64
2023/12/27 16:34:54;;;;;;;1999.90;999.90;;;;;;;8.34;100.00;100825.75;10458903;28;20084;-64
2023/12/27 16:39:56;;;;;;;1999.90;999.90;;;;;;;8.41;100.00;100815.84;10457517;28;20049;-64
2023/12/27 16:44:59;;;;;;;1999.90;999.90;;;;;;;8.31;100.00;100812.84;10458386;28;20051;-64
2023/12/27 16:50:02;;;;;;;1999.90;999.90;;;;;;;8.22;100.00;100787.22;10458208;28;20094;-64
2023/12/27 16:55:06;;;;;;;1999.90;999.90;;;;;;;8.22;100.00;100776.78;10457916;28;20053;-64
2023/12/27 17:00:09;;;;;;;1999.90;999.90;;;;;;;8.28;100.00;100759.97;10457872;28;20052;-64
2023/12/27 17:05:14;;;;;;;1999.90;999.90;;;;;;;8.15;100.00;100741.44;10457397;28;20049;-64
2023/12/27 17:10:16;;;;;;;1999.90;999.90;;;;;;;8.29;100.00;100730.38;10456428;28;20140;-64
2023/12/27 17:15:19;;;;;;;1999.90;999.90;;;;;;;8.26;100.00;100718.31;10457428;28;20045;-64
2023/12/27 17:20:21;;;;;;;1999.90;999.90;;;;;;;7.97;100.00;100691.88;10457534;28;20483;-64
2023/12/27 17:25:27;;;;;;;1999.90;999.90;;;;;;;8.25;100.00;100692.31;10457029;28;20055;-64
2023/12/27 17:30:29;;;;;;;1999.90;999.90;;;;;;;8.15;100.00;100697.97;10456860;28;20048;-64
2023/12/27 17:35:32;;;;;;;1999.90;999.90;;;;;;;8.13;100.00;100685.91;10456788;28;20045;-64
2023/12/27 17:40:34;;;;;;;1999.90;999.90;;;;;;;8.16;100.00;100673.56;10456892;28;20057;-64
2023/12/27 17:45:36;;;;;;;1999.90;999.90;;;;;;;8.14;100.00;100648.50;10456599;28;20179;-64
2023/12/27 17:50:43;;;;;;;1999.90;999.90;;;;;;;8.16;100.00;100644.06;10456350;28;20107;-65
2023/12/27 17:55:50;;;;;;;1999.90;999.90;;;;;;;8.13;100.00;100641.59;10456535;28;20049;-64
2023/12/27 18:00:52;;;;;;;1999.90;999.90;;;;;;;8.11;100.00;100641.66;10456326;28;20045;-64
2023/12/27 18:05:55;;;;;;;1999.90;999.90;;;;;;;8.04;100.00;100629.03;10455923;28;20144;-64
2023/12/27 18:10:58;;;;;;;1999.90;999.90;;;;;;;8.23;100.00;100631.56;10462499;28;20131;-64
2023/12/27 18:16:00;;;;;;;1999.90;999.90;;;;;;;8.11;100.00;100648.66;10464135;28;20407;-64
2023/12/27 18:21:04;;;;;;;1999.90;999.90;;;;;;;8.34;100.00;100668.38;10463964;28;20502;-64
2023/12/27 18:26:06;;;;;;;1999.90;999.90;;;;;;;8.17;100.00;100674.44;10463685;28;20059;-64
2023/12/27 18:31:09;;;;;;;1999.90;999.90;;;;;;;8.08;100.00;100665.28;10463626;28;20464;-64
2023/12/27 18:36:11;;;;;;;1999.90;999.90;;;;;;;8.15;99.65;100669.28;10463404;28;20499;-64
2023/12/27 18:41:14;;;;;;;1999.90;999.90;;;;;;;7.95;100.00;100657.22;10463107;28;20057;-64
2023/12/27 18:46:16;;;;;;;1999.90;999.90;;;;;;;8.21;97.72;100659.47;10462893;28;20045;-64
2023/12/27 18:51:19;;;;;;;1999.90;999.90;;;;;;;8.12;96.30;100668.56;10462803;28;20488;-64
2023/12/27 18:56:23;;;;;;;1999.90;999.90;;;;;;;7.89;97.48;100648.88;10462792;28;20124;-64
2023/12/27 19:01:25;;;;;;;1999.90;999.90;;;;;;;8.05;96.35;100647.16;10462388;28;20049;-64
2023/12/27 19:06:28;;;;;;;1999.90;999.90;;;;;;;8.05;93.34;100639.34;10462424;28;20045;-64
2023/12/27 19:11:33;;;;;;;1999.90;999.90;;;;;;;8.14;91.05;100610.22;10461400;28;20052;-64
2023/12/27 19:16:35;;;;;;;1999.90;999.90;;;;;;;7.99;94.21;100617.03;10462089;28;20053;-64
2023/12/27 19:21:39;;;;;;;1999.90;999.90;;;;;;;7.88;93.88;100614.13;10460532;28;20049;-64
2023/12/27 19:26:45;;;;;;;1999.90;999.90;;;;;;;7.94;91.83;100611.22;10461371;28;20403;-64
2023/12/27 19:31:47;;;;;;;1999.90;999.90;;;;;;;8.03;91.33;100622.09;10461339;28;20052;-64
2023/12/27 19:36:50;;;;;;;1999.90;999.90;;;;;;;8.00;90.14;100634.38;10460017;28;20049;-64
2023/12/27 19:41:53;;;;;;;1999.90;999.90;;;;;;;7.87;90.02;100615.06;10460810;28;20057;-64
2023/12/27 19:46:55;;;;;;;1999.90;999.90;;;;;;;8.36;84.72;100641.28;10460819;28;20111;-64
2023/12/27 19:51:57;;;;;;;1999.90;999.90;;;;;;;8.12;86.10;100645.09;10459358;28;20063;-64
2023/12/27 19:57:00;;;;;;;1999.90;999.90;;;;;;;8.38;82.62;100646.44;10460492;28;20075;-64
2023/12/27 20:02:02;;;;;;;1999.90;999.90;;;;;;;8.50;79.97;100624.94;10459050;28;20049;-64
2023/12/27 20:07:06;;;;;;;1999.90;999.90;;;;;;;8.45;81.69;100628.72;10460107;28;20132;-64
2023/12/27 20:12:08;;;;;;;1999.90;999.90;;;;;;;8.46;78.26;100615.59;10460150;28;20076;-64
2023/12/27 20:17:12;;;;;;;1999.90;999.90;;;;;;;8.55;79.03;100630.78;10459384;28;20086;-64
2023/12/27 20:22:15;;;;;;;1999.90;999.90;;;;;;;8.65;82.60;100622.47;10459490;28;20057;-64
2023/12/27 20:27:18;;;;;;;1999.90;999.90;;;;;;;9.02;75.08;100634.44;10459092;28;20041;-64
2023/12/27 20:32:20;;;;;;;1999.90;999.90;;;;;;;8.85;75.56;100658.00;10458747;28;20059;-64
2023/12/27 20:37:23;;;;;;;1999.90;999.90;;;;;;;8.59;82.40;100660.19;10458444;28;20556;-65
2023/12/27 20:42:26;;;;;;;1999.90;999.90;;;;;;;8.72;78.61;100652.56;10458456;28;20496;-64
2023/12/27 20:47:29;;;;;;;1999.90;999.90;;;;;;;8.97;76.85;100651.28;10458554;28;20045;-64
2023/12/27 20:52:31;;;;;;;1999.90;999.90;;;;;;;8.52;83.89;100687.50;10458027;28;20060;-64
2023/12/27 20:57:33;;;;;;;1999.90;999.90;;;;;;;8.54;89.60;100676.06;10458790;28;20124;-64
2023/12/27 21:02:36;;;;;;;1999.90;999.90;;;;;;;8.59;88.51;100656.72;10456595;28;20049;-64
2023/12/27 21:07:38;;;;;;;1999.90;999.90;;;;;;;8.35;92.17;100680.50;10457744;28;20045;-64
2023/12/27 21:12:41;;;;;;;1999.90;999.90;;;;;;;8.20;94.99;100684.69;10456160;28;20510;-64
2023/12/27 21:17:43;;;;;;;1999.90;999.90;;;;;;;8.43;95.18;100680.97;10457308;28;20044;-64
2023/12/27 21:22:46;;;;;;;1999.90;999.90;;;;;;;8.53;91.74;100684.81;10457224;28;20057;-64
2023/12/27 21:27:48;;;;;;;1999.90;999.90;;;;;;;8.42;96.83;100673.19;10456833;28;20128;-64
2023/12/27 21:32:50;;;;;;;1999.90;999.90;;;;;;;8.86;90.02;100686.63;10456726;28;20053;-64
2023/12/27 21:37:53;;;;;;;1999.90;999.90;;;;;;;8.67;90.86;100693.72;10455383;28;20084;-64
2023/12/27 21:42:56;;;;;;;1999.90;999.90;;;;;;;8.85;86.68;100692.75;10455987;28;20132;-64
2023/12/27 21:47:58;;;;;;;1999.90;999.90;;;;;;;9.00;85.20;100683.28;10456462;28;20052;-64
2023/12/27 21:53:01;;;;;;;1999.90;999.90;;;;;;;9.05;82.73;100680.44;10455116;28;20049;-64
2023/12/27 21:58:04;;;;;;;1999.90;999.90;;;;;;;8.98;86.21;100684.28;10456418;28;20119;-64